createdAt,value
2022-09-02T00:01:03.532Z,99.90
2022-09-02T00:03:34.427Z,99.90
2022-09-02T00:06:02.927Z,99.90
2022-09-02T00:08:31.942Z,99.90
2022-09-02T00:11:01.039Z,99.90
2022-09-02T00:13:28.885Z,99.90
2022-09-02T00:15:56.026Z,99.90
2022-09-02T00:18:24.913Z,99.90
2022-09-02T00:20:51.930Z,99.90
2022-09-02T00:23:18.914Z,99.90
2022-09-02T00:25:45.843Z,99.90
2022-09-02T00:28:15.118Z,99.90
2022-09-02T00:30:42.490Z,99.90
2022-09-02T00:33:10.958Z,99.90
2022-09-02T00:35:37.863Z,99.90
2022-09-02T00:38:05.725Z,99.90
2022-09-02T00:40:33.692Z,99.90
2022-09-02T00:43:00.998Z,99.90
2022-09-02T00:45:27.721Z,99.90
2022-09-02T00:47:54.437Z,99.90
2022-09-02T00:50:26.494Z,99.90
2022-09-02T00:53:15.567Z,99.90
2022-09-02T00:55:46.278Z,99.90
2022-09-02T00:58:34.802Z,99.90
2022-09-02T01:01:01.491Z,99.90
2022-09-02T01:03:31.098Z,99.90
2022-09-02T01:05:59.209Z,99.90
2022-09-02T01:08:32.698Z,99.90
2022-09-02T01:11:00.768Z,99.90
2022-09-02T01:13:31.341Z,99.90
2022-09-02T01:16:10.674Z,99.90
2022-09-02T01:18:38.690Z,99.90
2022-09-02T01:21:06.236Z,99.90
2022-09-02T01:23:34.804Z,99.90
2022-09-02T01:26:01.832Z,99.90
2022-09-02T01:28:28.468Z,99.90
2022-09-02T01:30:55.275Z,99.90
2022-09-02T01:33:25.436Z,99.90
2022-09-02T01:35:53.446Z,99.90
2022-09-02T01:38:21.013Z,99.90
2022-09-02T01:40:48.104Z,99.90
2022-09-02T01:43:19.081Z,99.90
2022-09-02T01:45:47.318Z,99.90
2022-09-02T01:48:21.260Z,99.90
2022-09-02T01:50:51.843Z,99.90
2022-09-02T01:53:18.959Z,99.90
2022-09-02T01:55:45.686Z,99.90
2022-09-02T01:58:12.374Z,99.90
2022-09-02T02:00:39.458Z,99.90
2022-09-02T02:03:06.194Z,99.90
2022-09-02T02:05:33.309Z,99.90
2022-09-02T02:07:59.963Z,99.90
2022-09-02T02:10:26.733Z,99.90
2022-09-02T02:12:53.509Z,99.90
2022-09-02T02:15:21.046Z,99.90
2022-09-02T02:17:47.969Z,99.90
2022-09-02T02:20:19.438Z,99.90
2022-09-02T02:22:47.217Z,99.90
2022-09-02T02:25:15.205Z,99.90
2022-09-02T02:27:43.691Z,99.90
2022-09-02T02:30:11.818Z,99.90
2022-09-02T02:32:38.502Z,99.90
2022-09-02T02:35:05.955Z,99.90
2022-09-02T02:37:32.807Z,99.90
2022-09-02T02:39:59.409Z,99.90
2022-09-02T02:42:26.142Z,99.90
2022-09-02T02:44:52.702Z,99.90
2022-09-02T02:47:19.342Z,99.90
2022-09-02T02:49:45.979Z,99.90
2022-09-02T02:52:13.220Z,99.90
2022-09-02T02:54:41.054Z,99.90
2022-09-02T02:57:08.805Z,99.90
2022-09-02T02:59:36.784Z,99.90
2022-09-02T03:02:04.870Z,99.90
2022-09-02T03:04:32.885Z,99.90
2022-09-02T03:06:59.513Z,99.90
2022-09-02T03:09:26.106Z,99.90
2022-09-02T03:11:52.674Z,99.90
2022-09-02T03:14:19.305Z,99.90
2022-09-02T03:16:50.133Z,99.90
2022-09-02T03:19:16.821Z,99.90
2022-09-02T03:21:43.623Z,99.90
2022-09-02T03:24:12.218Z,99.90
2022-09-02T03:26:41.546Z,99.90
2022-09-02T03:29:08.306Z,99.90
2022-09-02T03:31:35.802Z,99.90
2022-09-02T03:34:03.469Z,99.90
2022-09-02T03:36:33.034Z,99.90
2022-09-02T03:39:00.687Z,99.90
2022-09-02T03:41:27.301Z,99.90
2022-09-02T03:43:53.925Z,99.90
2022-09-02T03:46:20.569Z,99.90
2022-09-02T03:48:48.114Z,99.90
2022-09-02T03:51:15.030Z,99.90
2022-09-02T03:53:41.625Z,99.90
2022-09-02T03:56:13.089Z,99.90
2022-09-02T03:58:40.215Z,99.90
2022-09-02T04:01:08.262Z,99.90
2022-09-02T04:03:34.871Z,99.90
2022-09-02T04:06:01.424Z,99.90
2022-09-02T04:08:28.073Z,99.90
2022-09-02T04:10:56.174Z,99.90
2022-09-02T04:13:23.545Z,99.90
2022-09-02T04:15:50.377Z,99.90
2022-09-02T04:18:17.798Z,99.90
2022-09-02T04:20:45.447Z,99.90
2022-09-02T04:23:12.052Z,99.90
2022-09-02T04:25:43.212Z,99.90
2022-09-02T04:28:10.322Z,99.90
2022-09-02T04:30:41.457Z,99.90
2022-09-02T04:33:08.372Z,99.90
2022-09-02T04:35:35.886Z,99.90
2022-09-02T04:38:02.958Z,99.90
2022-09-02T04:40:29.750Z,99.90
2022-09-02T04:42:56.435Z,99.90
2022-09-02T04:45:26.557Z,99.90
2022-09-02T04:47:55.777Z,99.90
2022-09-02T04:50:22.377Z,99.90
2022-09-02T04:52:48.933Z,99.90
2022-09-02T04:55:15.681Z,99.90
2022-09-02T04:57:42.444Z,99.90
2022-09-02T05:00:09.854Z,99.90
2022-09-02T05:02:36.458Z,99.90
2022-09-02T05:05:03.583Z,99.90
2022-09-02T05:07:31.111Z,99.90
2022-09-02T05:10:02.694Z,99.90
2022-09-02T05:12:32.022Z,99.90
2022-09-02T05:15:01.006Z,99.90
2022-09-02T05:17:31.762Z,99.90
2022-09-02T05:19:58.959Z,99.90
2022-09-02T05:22:26.130Z,99.90
2022-09-02T05:24:52.757Z,99.90
2022-09-02T05:27:20.334Z,99.90
2022-09-02T05:29:48.033Z,99.90
2022-09-02T05:32:14.821Z,99.90
2022-09-02T05:34:41.473Z,99.90
2022-09-02T05:37:08.113Z,99.90
2022-09-02T05:39:35.258Z,99.90
2022-09-02T05:42:01.895Z,99.90
2022-09-02T05:44:31.097Z,99.90
2022-09-02T05:46:57.635Z,99.90
2022-09-02T05:49:24.218Z,99.90
2022-09-02T05:51:56.244Z,99.90
2022-09-02T05:54:29.973Z,99.90
2022-09-02T05:57:00.262Z,99.90
2022-09-02T05:59:29.107Z,99.90
2022-09-02T06:01:56.526Z,99.90
2022-09-02T06:04:24.107Z,99.90
2022-09-02T06:06:51.629Z,99.90
2022-09-02T06:09:21.775Z,99.90
2022-09-02T06:11:51.612Z,99.90
2022-09-02T06:14:21.815Z,99.90
2022-09-02T06:16:50.401Z,99.90
2022-09-02T06:19:20.209Z,99.90
2022-09-02T06:21:48.358Z,99.90
2022-09-02T06:24:15.357Z,99.90
2022-09-02T06:26:42.385Z,99.90
2022-09-02T06:29:10.397Z,99.90
2022-09-02T06:31:40.013Z,99.90
2022-09-02T06:34:06.863Z,99.90
2022-09-02T06:36:33.499Z,99.90
2022-09-02T06:39:01.109Z,99.90
2022-09-02T06:41:30.391Z,99.90
2022-09-02T06:44:00.099Z,99.90
2022-09-02T06:46:33.190Z,99.90
2022-09-02T06:49:00.197Z,99.90
2022-09-02T06:51:30.276Z,99.90
2022-09-02T06:53:57.292Z,99.90
2022-09-02T06:56:24.354Z,99.90
2022-09-02T06:58:50.992Z,99.90
2022-09-02T07:01:26.806Z,99.90
2022-09-02T07:04:12.445Z,99.90
2022-09-02T07:06:41.015Z,99.90
2022-09-02T07:09:10.276Z,99.90
2022-09-02T07:11:37.663Z,99.90
2022-09-02T07:14:05.534Z,99.90
2022-09-02T07:16:42.283Z,99.90
2022-09-02T07:19:14.134Z,99.90
2022-09-02T07:21:43.198Z,99.90
2022-09-02T07:24:12.016Z,99.90
2022-09-02T07:26:39.121Z,99.90
2022-09-02T07:29:08.692Z,99.90
2022-09-02T07:31:37.745Z,99.90
2022-09-02T07:34:06.523Z,99.90
2022-09-02T07:36:34.940Z,99.90
2022-09-02T07:39:03.227Z,99.90
2022-09-02T07:41:30.079Z,99.90
2022-09-02T07:43:59.620Z,99.90
2022-09-02T07:46:29.323Z,99.50
2022-09-02T07:48:56.929Z,99.60
2022-09-02T07:51:23.656Z,99.40
2022-09-02T07:53:57.458Z,98.70
2022-09-02T07:56:24.189Z,98.70
2022-09-02T07:58:50.895Z,98.20
2022-09-02T08:01:23.482Z,96.70
2022-09-02T08:03:51.026Z,96.80
2022-09-02T08:06:27.739Z,96.20
2022-09-02T08:09:03.648Z,95.30
2022-09-02T08:11:31.503Z,95.50
2022-09-02T08:13:59.935Z,95.60
2022-09-02T08:16:26.989Z,94.20
2022-09-02T08:18:53.834Z,93.90
2022-09-02T08:21:20.634Z,93.60
2022-09-02T08:23:51.198Z,93.30
2022-09-02T08:26:18.761Z,92.90
2022-09-02T08:28:45.592Z,93.50
2022-09-02T08:31:12.210Z,92.70
2022-09-02T08:33:38.833Z,92.70
2022-09-02T08:36:11.706Z,92.40
2022-09-02T08:38:38.587Z,92.30
2022-09-02T08:41:33.599Z,92.10
2022-09-02T08:44:01.741Z,92.40
2022-09-02T08:46:31.582Z,92.10
2022-09-02T08:49:13.917Z,91.70
2022-09-02T08:51:47.611Z,91.20
2022-09-02T08:54:22.119Z,90.70
2022-09-02T08:56:51.520Z,91.10
2022-09-02T08:59:25.285Z,91.00
2022-09-02T09:02:17.903Z,90.00
2022-09-02T09:05:00.974Z,90.40
2022-09-02T09:07:44.181Z,89.60
2022-09-02T09:10:21.683Z,90.20
2022-09-02T09:13:04.434Z,90.10
2022-09-02T09:15:40.184Z,88.20
2022-09-02T09:18:15.937Z,87.30
2022-09-02T09:20:43.625Z,86.60
2022-09-02T09:23:28.135Z,87.30
2022-09-02T09:26:05.905Z,88.20
2022-09-02T09:28:40.481Z,86.00
2022-09-02T09:31:11.609Z,85.60
2022-09-02T09:33:38.734Z,85.70
2022-09-02T09:36:05.701Z,84.40
2022-09-02T09:38:35.955Z,82.80
2022-09-02T09:41:24.565Z,83.10
2022-09-02T09:43:51.236Z,82.30
2022-09-02T09:46:34.082Z,82.50
2022-09-02T09:49:00.758Z,81.10
2022-09-02T09:51:27.334Z,78.80
2022-09-02T09:54:15.753Z,77.20
2022-09-02T09:56:42.551Z,77.70
2022-09-02T09:59:43.031Z,77.70
2022-09-02T10:02:25.008Z,76.60
2022-09-02T10:05:10.076Z,76.30
2022-09-02T10:07:40.657Z,73.50
2022-09-02T10:10:22.301Z,72.20
2022-09-02T10:12:52.049Z,73.30
2022-09-02T10:15:38.094Z,72.30
2022-09-02T10:18:23.576Z,70.30
2022-09-02T10:21:29.259Z,68.40
2022-09-02T10:24:13.623Z,65.80
2022-09-02T10:26:52.233Z,63.10
2022-09-02T10:29:37.506Z,62.00
2022-09-02T10:32:13.179Z,61.10
2022-09-02T10:35:08.225Z,62.20
2022-09-02T10:38:13.709Z,62.70
2022-09-02T10:40:47.365Z,61.00
2022-09-02T10:43:43.049Z,61.30
2022-09-02T10:46:12.961Z,62.20
2022-09-02T10:48:39.553Z,61.70
2022-09-02T10:51:39.424Z,62.50
2022-09-02T10:54:36.860Z,59.30
2022-09-02T10:57:19.804Z,61.80
2022-09-02T11:00:07.064Z,62.40
2022-09-02T11:03:10.653Z,60.60
2022-09-02T11:05:53.753Z,60.20
2022-09-02T11:08:50.714Z,59.80
2022-09-02T11:11:24.414Z,58.80
2022-09-02T11:13:56.534Z,58.50
2022-09-02T11:16:33.655Z,58.30
2022-09-02T11:19:28.677Z,58.30
2022-09-02T11:21:59.254Z,56.10
2022-09-02T11:24:31.070Z,57.00
2022-09-02T11:27:26.220Z,57.80
2022-09-02T11:30:05.588Z,56.40
2022-09-02T11:32:47.349Z,56.60
2022-09-02T11:35:27.274Z,56.70
2022-09-02T11:38:31.988Z,57.90
2022-09-02T11:41:35.109Z,57.60
2022-09-02T11:44:40.674Z,56.60
2022-09-02T11:47:29.171Z,58.00
2022-09-02T11:50:22.969Z,57.40
2022-09-02T11:52:50.888Z,57.50
2022-09-02T11:55:23.582Z,56.30
2022-09-02T11:57:54.833Z,54.70
2022-09-02T12:00:36.489Z,54.00
2022-09-02T12:03:28.515Z,55.00
2022-09-02T12:06:19.309Z,56.20
2022-09-02T12:08:48.749Z,56.10
2022-09-02T12:11:48.696Z,56.00
2022-09-02T12:14:21.354Z,56.10
2022-09-02T12:17:03.594Z,55.10
2022-09-02T12:19:42.030Z,55.00
2022-09-02T12:22:17.954Z,53.90
2022-09-02T12:25:05.966Z,54.10
2022-09-02T12:27:36.485Z,53.70
2022-09-02T12:30:10.082Z,54.40
2022-09-02T12:32:51.839Z,54.30
2022-09-02T12:35:40.300Z,54.30
2022-09-02T12:38:10.082Z,52.90
2022-09-02T12:40:42.044Z,52.50
2022-09-02T12:43:49.869Z,52.90
2022-09-02T12:46:24.597Z,52.50
2022-09-02T12:48:58.397Z,52.20
2022-09-02T12:51:54.778Z,51.80
2022-09-02T12:54:35.659Z,49.50
2022-09-02T12:57:03.706Z,49.20
2022-09-02T12:59:34.038Z,48.60
2022-09-02T13:02:30.846Z,48.80
2022-09-02T13:05:16.185Z,48.30
2022-09-02T13:08:02.369Z,49.00
2022-09-02T13:11:07.129Z,48.80
2022-09-02T13:14:26.847Z,49.60
2022-09-02T13:17:09.006Z,48.70
2022-09-02T13:20:09.511Z,47.80
2022-09-02T13:22:53.426Z,48.30
2022-09-02T13:25:41.479Z,47.80
2022-09-02T13:28:33.821Z,47.00
2022-09-02T13:31:14.160Z,46.70
2022-09-02T13:33:42.755Z,46.40
2022-09-02T13:36:10.050Z,46.40
2022-09-02T13:38:38.894Z,46.80
2022-09-02T13:41:05.826Z,45.90
2022-09-02T13:43:32.516Z,46.20
2022-09-02T13:46:01.808Z,45.80
2022-09-02T13:48:32.995Z,45.90
2022-09-02T13:51:11.469Z,45.90
2022-09-02T13:53:53.596Z,45.40
2022-09-02T13:56:30.939Z,44.80
2022-09-02T13:58:57.789Z,44.70
2022-09-02T14:01:29.337Z,44.00
2022-09-02T14:03:59.298Z,44.10
2022-09-02T14:06:30.661Z,43.50
2022-09-02T14:09:01.068Z,42.90
2022-09-02T14:11:30.265Z,43.20
2022-09-02T14:13:57.607Z,42.80
2022-09-02T14:16:33.137Z,43.30
2022-09-02T14:19:07.524Z,41.90
2022-09-02T14:21:36.141Z,40.70
2022-09-02T14:24:03.855Z,40.50
2022-09-02T14:26:41.890Z,40.60
2022-09-02T14:29:12.235Z,40.60
2022-09-02T14:31:38.857Z,40.20
2022-09-02T14:34:38.604Z,40.80
2022-09-02T14:37:20.259Z,40.30
2022-09-02T14:40:10.407Z,40.00
2022-09-02T14:42:57.445Z,40.00
2022-09-02T14:45:32.987Z,39.50
2022-09-02T14:48:09.289Z,39.10
2022-09-02T14:50:36.534Z,39.10
2022-09-02T14:53:08.988Z,38.60
2022-09-02T14:55:52.475Z,38.20
2022-09-02T14:58:21.064Z,38.50
2022-09-02T15:00:56.522Z,38.20
2022-09-02T15:03:23.429Z,38.40
2022-09-02T15:05:50.274Z,38.90
2022-09-02T15:08:16.878Z,37.80
2022-09-02T15:10:45.061Z,38.30
2022-09-02T15:13:29.541Z,37.80
2022-09-02T15:15:57.224Z,38.00
2022-09-02T15:18:24.211Z,38.50
2022-09-02T15:20:51.601Z,38.60
2022-09-02T15:23:18.718Z,38.70
2022-09-02T15:25:45.377Z,38.40
2022-09-02T15:28:12.713Z,37.90
2022-09-02T15:30:39.974Z,38.40
2022-09-02T15:33:08.145Z,37.90
2022-09-02T15:35:43.278Z,37.80
2022-09-02T15:38:09.830Z,38.00
2022-09-02T15:40:36.623Z,38.10
2022-09-02T15:43:03.201Z,38.20
2022-09-02T15:45:31.126Z,38.40
2022-09-02T15:47:59.114Z,38.60
2022-09-02T15:50:27.509Z,38.90
2022-09-02T15:52:55.797Z,38.80
2022-09-02T15:55:26.794Z,39.10
2022-09-02T15:57:56.738Z,39.10
2022-09-02T16:00:24.218Z,39.40
2022-09-02T16:02:55.977Z,39.60
2022-09-02T16:05:24.089Z,39.40
2022-09-02T16:07:52.018Z,40.60
2022-09-02T16:10:18.663Z,40.10
2022-09-02T16:12:45.322Z,40.60
2022-09-02T16:15:11.981Z,40.60
2022-09-02T16:17:38.582Z,41.10
2022-09-02T16:20:05.581Z,41.20
2022-09-02T16:22:32.178Z,41.60
2022-09-02T16:24:58.734Z,41.30
2022-09-02T16:27:43.874Z,41.30
2022-09-02T16:30:10.909Z,41.70
2022-09-02T16:32:37.737Z,42.10
2022-09-02T16:35:04.691Z,42.10
2022-09-02T16:37:31.279Z,42.80
2022-09-02T16:39:57.904Z,43.10
2022-09-02T16:42:24.867Z,43.00
2022-09-02T16:44:51.889Z,43.90
2022-09-02T16:47:18.611Z,43.50
2022-09-02T16:49:46.205Z,43.90
2022-09-02T16:52:12.947Z,43.70
2022-09-02T16:54:40.931Z,43.60
2022-09-02T16:57:08.071Z,43.80
2022-09-02T16:59:34.777Z,43.60
2022-09-02T17:02:01.553Z,43.60
2022-09-02T17:04:29.475Z,43.80
2022-09-02T17:06:56.660Z,43.60
2022-09-02T17:09:23.401Z,44.20
2022-09-02T17:11:50.168Z,44.90
2022-09-02T17:14:21.555Z,44.40
2022-09-02T17:16:50.571Z,44.30
2022-09-02T17:19:21.624Z,44.70
2022-09-02T17:21:53.585Z,45.40
2022-09-02T17:24:25.497Z,45.00
2022-09-02T17:26:55.823Z,45.40
2022-09-02T17:32:11.524Z,45.90
2022-09-02T17:34:38.114Z,45.70
2022-09-02T17:37:05.530Z,46.00
2022-09-02T17:39:34.028Z,46.30
2022-09-02T17:42:01.758Z,46.40
2022-09-02T17:44:38.173Z,47.00
2022-09-02T17:47:20.192Z,47.10
2022-09-02T17:49:47.598Z,47.10
2022-09-02T17:52:17.642Z,47.30
2022-09-02T17:54:45.641Z,47.50
2022-09-02T17:57:24.012Z,47.70
2022-09-02T18:00:09.708Z,48.00
2022-09-02T18:02:36.238Z,48.20
2022-09-02T18:05:29.125Z,48.30
2022-09-02T18:08:08.622Z,49.00
2022-09-02T18:10:36.421Z,49.40
2022-09-02T18:13:05.992Z,50.40
2022-09-02T18:15:45.091Z,49.80
2022-09-02T18:18:15.813Z,50.30
2022-09-02T18:20:45.657Z,50.20
2022-09-02T18:23:37.134Z,50.40
2022-09-02T18:26:45.898Z,50.80
2022-09-02T18:29:39.555Z,51.30
2022-09-02T18:32:27.497Z,51.80
2022-09-02T18:35:03.350Z,51.60
2022-09-02T18:37:37.341Z,51.80
2022-09-02T18:40:33.117Z,52.00
2022-09-02T18:43:05.378Z,52.30
2022-09-02T18:45:35.556Z,52.60
2022-09-02T18:48:35.894Z,52.50
2022-09-02T18:51:24.976Z,52.70
2022-09-02T18:54:00.447Z,52.90
2022-09-02T18:56:33.410Z,53.00
2022-09-02T18:59:11.223Z,53.30
2022-09-02T19:01:46.045Z,53.70
2022-09-02T19:04:14.686Z,54.30
2022-09-02T19:06:41.661Z,54.40
2022-09-02T19:09:13.153Z,54.60
2022-09-02T19:11:40.464Z,55.00
2022-09-02T19:14:29.088Z,55.40
2022-09-02T19:16:58.190Z,55.70
2022-09-02T19:19:27.402Z,56.40
2022-09-02T19:22:10.278Z,56.90
2022-09-02T19:24:42.527Z,56.70
2022-09-02T19:27:13.312Z,56.80
2022-09-02T19:29:43.706Z,57.00
2022-09-02T19:32:12.454Z,57.50
2022-09-02T19:34:42.066Z,57.40
2022-09-02T19:37:11.609Z,57.50
2022-09-02T19:39:38.524Z,58.00
2022-09-02T19:42:06.481Z,58.10
2022-09-02T19:44:33.197Z,58.10
2022-09-02T19:49:46.709Z,58.20
2022-09-02T19:52:13.988Z,58.40
2022-09-02T19:54:41.581Z,58.60
2022-09-02T19:57:08.267Z,58.90
2022-09-02T19:59:34.975Z,58.80
2022-09-02T20:02:04.348Z,58.90
2022-09-02T20:04:33.098Z,59.50
2022-09-02T20:07:00.301Z,59.00
2022-09-02T20:09:29.097Z,59.50
2022-09-02T20:11:56.665Z,59.50
2022-09-02T20:14:23.582Z,60.00
2022-09-02T20:16:57.005Z,61.50
2022-09-02T20:19:23.753Z,61.10
2022-09-02T20:21:53.546Z,62.20
2022-09-02T20:24:31.356Z,63.70
2022-09-02T20:27:24.932Z,64.60
2022-09-02T20:30:09.014Z,65.30
2022-09-02T20:32:43.722Z,66.10
2022-09-02T20:35:24.445Z,65.10
2022-09-02T20:37:57.102Z,65.70
2022-09-02T20:40:56.219Z,66.40
2022-09-02T20:43:56.693Z,66.20
2022-09-02T20:46:56.895Z,67.20
2022-09-02T20:49:42.920Z,67.40
2022-09-02T20:52:25.845Z,67.90
2022-09-02T20:55:08.315Z,68.30
2022-09-02T20:57:40.902Z,69.00
2022-09-02T21:00:12.031Z,69.40
2022-09-02T21:02:58.768Z,69.80
2022-09-02T21:05:52.248Z,70.40
2022-09-02T21:08:56.928Z,70.50
2022-09-02T21:11:29.230Z,71.40
2022-09-02T21:14:05.412Z,71.80
2022-09-02T21:16:38.626Z,72.20
2022-09-02T21:19:27.759Z,72.90
2022-09-02T21:22:06.097Z,73.80
2022-09-02T21:24:36.355Z,73.70
2022-09-02T21:27:17.929Z,74.30
2022-09-02T21:29:55.468Z,75.00
2022-09-02T21:32:41.034Z,74.60
2022-09-02T21:35:15.111Z,75.40
2022-09-02T21:37:44.414Z,76.30
2022-09-02T21:40:15.922Z,76.90
2022-09-02T21:43:13.011Z,78.00
2022-09-02T21:45:57.650Z,78.50
2022-09-02T21:49:01.295Z,78.00
2022-09-02T21:51:41.747Z,78.10
2022-09-02T21:54:25.164Z,78.60
2022-09-02T21:57:35.071Z,79.10
2022-09-02T22:00:04.746Z,80.10
2022-09-02T22:02:52.461Z,80.00
2022-09-02T22:05:35.334Z,80.60
2022-09-02T22:08:19.808Z,80.80
2022-09-02T22:11:00.761Z,81.40
2022-09-02T22:13:30.999Z,82.10
2022-09-02T22:16:25.343Z,81.70
2022-09-02T22:19:11.165Z,82.90
2022-09-02T22:21:51.122Z,84.00
2022-09-02T22:24:28.424Z,84.40
2022-09-02T22:27:23.141Z,84.00
2022-09-02T22:30:10.131Z,85.10
2022-09-02T22:32:47.029Z,85.60
2022-09-02T22:35:34.026Z,86.40
2022-09-02T22:38:34.669Z,87.30
2022-09-02T22:41:25.083Z,86.90
2022-09-02T22:44:11.402Z,87.90
2022-09-02T22:47:18.421Z,87.30
2022-09-02T22:50:14.651Z,87.80
2022-09-02T22:52:46.255Z,88.30
2022-09-02T22:55:38.090Z,88.80
2022-09-02T22:58:28.853Z,89.30
2022-09-02T23:01:27.053Z,89.40
2022-09-02T23:04:28.978Z,89.90
2022-09-02T23:06:56.846Z,89.80
2022-09-02T23:09:23.604Z,90.40
2022-09-02T23:12:24.985Z,90.70
2022-09-02T23:15:10.130Z,90.70
2022-09-02T23:18:12.613Z,90.70
2022-09-02T23:20:55.431Z,90.70
2022-09-02T23:23:22.719Z,91.00
2022-09-02T23:26:08.227Z,91.40
2022-09-02T23:29:01.207Z,91.50
2022-09-02T23:31:45.115Z,92.40
2022-09-02T23:34:28.341Z,92.60
2022-09-02T23:37:04.512Z,93.30
2022-09-02T23:40:01.415Z,94.70
2022-09-02T23:42:29.374Z,94.90
2022-09-02T23:45:03.802Z,95.10
2022-09-02T23:48:07.312Z,94.90
2022-09-02T23:50:46.947Z,95.70
2022-09-02T23:53:50.742Z,95.50
2022-09-02T23:56:20.136Z,95.90
2022-09-02T23:59:05.122Z,96.70
